Terminal Aerodrome Forecast
Issued by NWS

Home | Current Version | Previous Version | Text Only | Print | Product List | Glossary On
Versions: 1 2 3 4 5 6 7 8 9 10 11 12 13 14 15 16 17 18 19 20 21 22 23 24 25 26 27 28 29 30
000
FTUS43 KDVN 290111 AAA
TAFBRL
TAF AMD
KBRL 290111Z 2901/2924 06006KT P6SM SCT017 OVC080
     FM290400 VRB04KT P6SM SCT005 BKN035
     FM290700 35005KT 4SM BR BKN025
      TEMPO 2909/2913 2SM BR BKN009
     FM291500 34006KT P6SM BKN020
     FM291800 33007KT P6SM BKN050=

USA.gov is the U.S. government's official web portal to all federal, state and local government web resources and services.